sensor_id;sensor_type;location;lat;lon;timestamp;pressure;altitude;pressure_sealevel;temperature;humidity
19789;BME280;10054;59.332;18.244;2023-11-18T00:00:29;101817.16;;;-1.81;100.00
19789;BME280;10054;59.332;18.244;2023-11-18T00:02:57;101818.88;;;-1.80;100.00
19789;BME280;10054;59.332;18.244;2023-11-18T00:05:26;101816.73;;;-1.79;100.00
19789;BME280;10054;59.332;18.244;2023-11-18T00:07:55;101820.16;;;-1.83;100.00
19789;BME280;10054;59.332;18.244;2023-11-18T00:10:24;101819.29;;;-1.83;100.00
19789;BME280;10054;59.332;18.244;2023-11-18T00:12:53;101817.14;;;-1.82;100.00
19789;BME280;10054;59.332;18.244;2023-11-18T00:15:21;101818.03;;;-1.79;100.00
19789;BME280;10054;59.332;18.244;2023-11-18T00:17:50;101808.11;;;-1.79;100.00
19789;BME280;10054;59.332;18.244;2023-11-18T00:20:20;101818.05;;;-1.76;100.00
19789;BME280;10054;59.332;18.244;2023-11-18T00:22:50;101813.31;;;-1.75;100.00
19789;BME280;10054;59.332;18.244;2023-11-18T00:25:23;101811.17;;;-1.72;100.00
19789;BME280;10054;59.332;18.244;2023-11-18T00:27:52;101818.95;;;-1.71;100.00
19789;BME280;10054;59.332;18.244;2023-11-18T00:30:22;101821.55;;;-1.69;100.00
19789;BME280;10054;59.332;18.244;2023-11-18T00:32:51;101822.48;;;-1.59;100.00
19789;BME280;10054;59.332;18.244;2023-11-18T00:35:20;101820.36;;;-1.48;100.00
19789;BME280;10054;59.332;18.244;2023-11-18T00:37:48;101817.80;;;-1.45;100.00
19789;BME280;10054;59.332;18.244;2023-11-18T00:40:17;101817.77;;;-1.48;100.00
19789;BME280;10054;59.332;18.244;2023-11-18T00:42:46;101810.89;;;-1.50;100.00
19789;BME280;10054;59.332;18.244;2023-11-18T00:45:15;101816.47;;;-1.55;100.00
19789;BME280;10054;59.332;18.244;2023-11-18T00:47:44;101816.45;;;-1.58;100.00
19789;BME280;10054;59.332;18.244;2023-11-18T00:50:13;101819.47;;;-1.57;100.00
19789;BME280;10054;59.332;18.244;2023-11-18T00:52:42;101815.16;;;-1.58;100.00
19789;BME280;10054;59.332;18.244;2023-11-18T00:55:11;101821.16;;;-1.62;100.00
19789;BME280;10054;59.332;18.244;2023-11-18T00:57:39;101819.87;;;-1.62;100.00
19789;BME280;10054;59.332;18.244;2023-11-18T01:00:11;101824.62;;;-1.60;100.00
19789;BME280;10054;59.332;18.244;2023-11-18T01:02:42;101820.30;;;-1.61;100.00
19789;BME280;10054;59.332;18.244;2023-11-18T01:05:10;101823.73;;;-1.64;100.00
19789;BME280;10054;59.332;18.244;2023-11-18T01:07:40;101815.08;;;-1.69;100.00
19789;BME280;10054;59.332;18.244;2023-11-18T01:10:10;101819.84;;;-1.66;100.00
19789;BME280;10054;59.332;18.244;2023-11-18T01:12:41;101815.54;;;-1.65;100.00
19789;BME280;10054;59.332;18.244;2023-11-18T01:15:13;101820.69;;;-1.68;100.00
19789;BME280;10054;59.332;18.244;2023-11-18T01:17:42;101826.74;;;-1.66;100.00
19789;BME280;10054;59.332;18.244;2023-11-18T01:20:12;101820.68;;;-1.70;100.00
19789;BME280;10054;59.332;18.244;2023-11-18T01:22:41;101817.64;;;-1.72;100.00
19789;BME280;10054;59.332;18.244;2023-11-18T01:25:11;101815.95;;;-1.69;100.00
19789;BME280;10054;59.332;18.244;2023-11-18T01:27:40;101818.22;;;-1.51;100.00
19789;BME280;10054;59.332;18.244;2023-11-18T01:30:10;101815.64;;;-1.50;100.00
19789;BME280;10054;59.332;18.244;2023-11-18T01:32:39;101819.48;;;-1.56;100.00
19789;BME280;10054;59.332;18.244;2023-11-18T01:35:09;101812.52;;;-1.64;100.00
19789;BME280;10054;59.332;18.244;2023-11-18T01:37:41;101809.87;;;-1.74;100.00
19789;BME280;10054;59.332;18.244;2023-11-18T01:40:11;101808.55;;;-1.78;100.00
19789;BME280;10054;59.332;18.244;2023-11-18T01:42:42;101803.34;;;-1.83;100.00
19789;BME280;10054;59.332;18.244;2023-11-18T01:45:14;101798.99;;;-1.88;100.00
19789;BME280;10054;59.332;18.244;2023-11-18T01:47:45;101798.98;;;-1.90;100.00
19789;BME280;10054;59.332;18.244;2023-11-18T01:50:16;101794.66;;;-1.92;100.00
19789;BME280;10054;59.332;18.244;2023-11-18T01:52:47;101793.78;;;-1.93;100.00
19789;BME280;10054;59.332;18.244;2023-11-18T01:55:16;101787.73;;;-1.95;100.00
19789;BME280;10054;59.332;18.244;2023-11-18T01:57:45;101788.16;;;-1.95;100.00
19789;BME280;10054;59.332;18.244;2023-11-18T02:00:14;101789.89;;;-1.94;100.00
19789;BME280;10054;59.332;18.244;2023-11-18T02:02:45;101789.89;;;-1.94;100.00
19789;BME280;10054;59.332;18.244;2023-11-18T02:05:14;101797.66;;;-1.94;100.00
19789;BME280;10054;59.332;18.244;2023-11-18T02:07:44;101797.23;;;-1.92;100.00
19789;BME280;10054;59.332;18.244;2023-11-18T02:10:14;101792.93;;;-1.92;100.00
19789;BME280;10054;59.332;18.244;2023-11-18T02:15:37;101798.56;;;-1.88;100.00
19789;BME280;10054;59.332;18.244;2023-11-18T02:18:08;101790.88;;;-1.79;100.00
19789;BME280;10054;59.332;18.244;2023-11-18T02:20:40;101794.80;;;-1.71;100.00
19789;BME280;10054;59.332;18.244;2023-11-18T02:23:09;101793.14;;;-1.61;100.00
19789;BME280;10054;59.332;18.244;2023-11-18T02:25:46;101787.58;;;-1.53;100.00
19789;BME280;10054;59.332;18.244;2023-11-18T02:28:15;101792.77;;;-1.46;100.00
19789;BME280;10054;59.332;18.244;2023-11-18T02:30:45;101791.51;;;-1.40;100.00
19789;BME280;10054;59.332;18.244;2023-11-18T02:33:34;101789.39;;;-1.31;100.00
19789;BME280;10054;59.332;18.244;2023-11-18T02:36:05;101790.74;;;-1.20;100.00
19789;BME280;10054;59.332;18.244;2023-11-18T02:38:35;101788.64;;;-1.06;100.00
19789;BME280;10054;59.332;18.244;2023-11-18T02:41:09;101795.58;;;-0.97;100.00
19789;BME280;10054;59.332;18.244;2023-11-18T02:43:40;101795.17;;;-0.93;100.00
19789;BME280;10054;59.332;18.244;2023-11-18T02:46:10;101795.17;;;-0.93;100.00
19789;BME280;10054;59.332;18.244;2023-11-18T02:48:42;101788.25;;;-0.94;100.00
19789;BME280;10054;59.332;18.244;2023-11-18T02:51:12;101786.96;;;-0.94;100.00
19789;BME280;10054;59.332;18.244;2023-11-18T02:53:40;101787.39;;;-0.95;100.00
19789;BME280;10054;59.332;18.244;2023-11-18T02:56:11;101783.08;;;-0.93;100.00
19789;BME280;10054;59.332;18.244;2023-11-18T02:58:39;101786.98;;;-0.90;100.00
19789;BME280;10054;59.332;18.244;2023-11-18T03:01:08;101785.69;;;-0.90;100.00
19789;BME280;10054;59.332;18.244;2023-11-18T03:03:38;101786.98;;;-0.90;100.00
19789;BME280;10054;59.332;18.244;2023-11-18T03:06:07;101778.34;;;-0.89;100.00
19789;BME280;10054;59.332;18.244;2023-11-18T03:08:36;101790.88;;;-0.87;100.00
19789;BME280;10054;59.332;18.244;2023-11-18T03:11:05;101791.30;;;-0.86;100.00
19789;BME280;10054;59.332;18.244;2023-11-18T03:13:35;101788.72;;;-0.84;100.00
19789;BME280;10054;59.332;18.244;2023-11-18T03:16:09;101785.70;;;-0.84;100.00
19789;BME280;10054;59.332;18.244;2023-11-18T03:18:43;101787.00;;;-0.82;100.00
19789;BME280;10054;59.332;18.244;2023-11-18T03:21:13;101788.73;;;-0.81;100.00
19789;BME280;10054;59.332;18.244;2023-11-18T03:23:43;101785.27;;;-0.82;100.00
19789;BME280;10054;59.332;18.244;2023-11-18T03:26:12;101779.23;;;-0.81;100.00
19789;BME280;10054;59.332;18.244;2023-11-18T03:28:41;101781.83;;;-0.79;100.00
19789;BME280;10054;59.332;18.244;2023-11-18T03:31:10;101783.13;;;-0.79;100.00
19789;BME280;10054;59.332;18.244;2023-11-18T03:33:39;101788.30;;;-0.79;100.00
19789;BME280;10054;59.332;18.244;2023-11-18T03:36:09;101791.33;;;-0.80;100.00
19789;BME280;10054;59.332;18.244;2023-11-18T03:38:40;101788.73;;;-0.80;100.00
19789;BME280;10054;59.332;18.244;2023-11-18T03:41:08;101793.05;;;-0.80;100.00
19789;BME280;10054;59.332;18.244;2023-11-18T03:43:38;101784.85;;;-0.78;100.00
19789;BME280;10054;59.332;18.244;2023-11-18T03:46:06;101783.56;;;-0.75;100.00
19789;BME280;10054;59.332;18.244;2023-11-18T03:48:36;101784.84;;;-0.68;100.00
19789;BME280;10054;59.332;18.244;2023-11-18T03:51:05;101785.28;;;-0.65;100.00
19789;BME280;10054;59.332;18.244;2023-11-18T03:53:34;101790.03;;;-0.66;100.00
19789;BME280;10054;59.332;18.244;2023-11-18T03:56:03;101787.86;;;-0.71;100.00
19789;BME280;10054;59.332;18.244;2023-11-18T03:58:32;101783.56;;;-0.75;100.00
19789;BME280;10054;59.332;18.244;2023-11-18T04:01:02;101786.15;;;-0.78;100.00
19789;BME280;10054;59.332;18.244;2023-11-18T04:03:31;101780.09;;;-0.82;100.00
19789;BME280;10054;59.332;18.244;2023-11-18T04:06:00;101783.11;;;-0.82;100.00
19789;BME280;10054;59.332;18.244;2023-11-18T04:08:30;101779.66;;;-0.84;100.00
19789;BME280;10054;59.332;18.244;2023-11-18T04:10:59;101783.55;;;-0.84;100.00
19789;BME280;10054;59.332;18.244;2023-11-18T04:13:31;101785.27;;;-0.86;100.00
19789;BME280;10054;59.332;18.244;2023-11-18T04:16:00;101785.25;;;-0.88;100.00
19789;BME280;10054;59.332;18.244;2023-11-18T04:18:28;101786.98;;;-0.88;100.00
19789;BME280;10054;59.332;18.244;2023-11-18T04:20:58;101787.85;;;-0.86;100.00
19789;BME280;10054;59.332;18.244;2023-11-18T04:23:27;101780.52;;;-0.85;100.00
19789;BME280;10054;59.332;18.244;2023-11-18T04:25:55;101780.95;;;-0.86;100.00
19789;BME280;10054;59.332;18.244;2023-11-18T04:28:24;101784.83;;;-0.86;100.00
19789;BME280;10054;59.332;18.244;2023-11-18T04:31:13;101778.36;;;-0.86;100.00
19789;BME280;10054;59.332;18.244;2023-11-18T04:33:42;101785.27;;;-0.85;100.00
19789;BME280;10054;59.332;18.244;2023-11-18T04:36:11;101784.41;;;-0.82;100.00
19789;BME280;10054;59.332;18.244;2023-11-18T04:38:41;101783.97;;;-0.74;100.00
19789;BME280;10054;59.332;18.244;2023-11-18T04:41:11;101777.95;;;-0.62;100.00
19789;BME280;10054;59.332;18.244;2023-11-18T04:43:40;101774.06;;;-0.62;100.00
19789;BME280;10054;59.332;18.244;2023-11-18T04:46:10;101775.34;;;-0.69;100.00
19789;BME280;10054;59.332;18.244;2023-11-18T04:48:39;101770.61;;;-0.75;100.00
19789;BME280;10054;59.332;18.244;2023-11-18T04:51:07;101766.27;;;-0.82;100.00
19789;BME280;10054;59.332;18.244;2023-11-18T04:53:36;101772.73;;;-0.87;100.00
19789;BME280;10054;59.332;18.244;2023-11-18T04:56:07;101771.42;;;-0.93;100.00
19789;BME280;10054;59.332;18.244;2023-11-18T04:58:39;101770.11;;;-0.99;100.00
19789;BME280;10054;59.332;18.244;2023-11-18T05:01:08;101770.95;;;-1.05;100.00
19789;BME280;10054;59.332;18.244;2023-11-18T05:03:37;101771.81;;;-1.07;100.00
19789;BME280;10054;59.332;18.244;2023-11-18T05:06:06;101773.09;;;-1.09;100.00
19789;BME280;10054;59.332;18.244;2023-11-18T05:08:35;101768.78;;;-1.10;100.00
19789;BME280;10054;59.332;18.244;2023-11-18T05:11:05;101769.20;;;-1.13;100.00
19789;BME280;10054;59.332;18.244;2023-11-18T05:13:33;101767.89;;;-1.15;100.00
19789;BME280;10054;59.332;18.244;2023-11-18T05:16:03;101765.75;;;-1.12;100.00
19789;BME280;10054;59.332;18.244;2023-11-18T05:18:32;101764.89;;;-1.10;100.00
19789;BME280;10054;59.332;18.244;2023-11-18T05:21:05;101761.02;;;-1.08;100.00
19789;BME280;10054;59.332;18.244;2023-11-18T05:23:37;101760.16;;;-1.07;100.00
19789;BME280;10054;59.332;18.244;2023-11-18T05:26:06;101761.03;;;-1.05;100.00
19789;BME280;10054;59.332;18.244;2023-11-18T05:28:35;101758.87;;;-1.04;100.00
19789;BME280;10054;59.332;18.244;2023-11-18T05:31:04;101753.69;;;-1.06;100.00
19789;BME280;10054;59.332;18.244;2023-11-18T05:33:33;101747.22;;;-1.04;100.00
19789;BME280;10054;59.332;18.244;2023-11-18T05:36:03;101753.70;;;-1.00;100.00
19789;BME280;10054;59.332;18.244;2023-11-18T05:38:33;101755.45;;;-0.95;100.00
19789;BME280;10054;59.332;18.244;2023-11-18T05:41:03;101754.59;;;-0.90;100.00
19789;BME280;10054;59.332;18.244;2023-11-18T05:43:34;101757.64;;;-0.84;100.00
19789;BME280;10054;59.332;18.244;2023-11-18T05:46:07;101762.39;;;-0.79;100.00
19789;BME280;10054;59.332;18.244;2023-11-18T05:48:48;101763.67;;;-0.73;100.00
19789;BME280;10054;59.332;18.244;2023-11-18T05:51:22;101759.36;;;-0.71;100.00
19789;BME280;10054;59.332;18.244;2023-11-18T05:53:51;101767.57;;;-0.69;100.00
19789;BME280;10054;59.332;18.244;2023-11-18T05:56:21;101765.84;;;-0.67;100.00
19789;BME280;10054;59.332;18.244;2023-11-18T05:58:50;101768.02;;;-0.64;100.00
19789;BME280;10054;59.332;18.244;2023-11-18T06:01:20;101769.75;;;-0.60;100.00
19789;BME280;10054;59.332;18.244;2023-11-18T06:03:49;101763.27;;;-0.60;100.00
19789;BME280;10054;59.332;18.244;2023-11-18T06:06:18;101766.29;;;-0.59;100.00
19789;BME280;10054;59.332;18.244;2023-11-18T06:08:49;101765.86;;;-0.57;100.00
19789;BME280;10054;59.332;18.244;2023-11-18T06:11:18;101773.64;;;-0.56;100.00
19789;BME280;10054;59.332;18.244;2023-11-18T06:13:51;101771.48;;;-0.55;100.00
19789;BME280;10054;59.332;18.244;2023-11-18T06:16:22;101776.23;;;-0.54;100.00
19789;BME280;10054;59.332;18.244;2023-11-18T06:18:54;101774.52;;;-0.52;100.00
19789;BME280;10054;59.332;18.244;2023-11-18T06:21:24;101774.52;;;-0.52;100.00
19789;BME280;10054;59.332;18.244;2023-11-18T06:23:56;101784.45;;;-0.50;100.00
19789;BME280;10054;59.332;18.244;2023-11-18T06:26:25;101789.63;;;-0.50;100.00
19789;BME280;10054;59.332;18.244;2023-11-18T06:28:55;101795.25;;;-0.48;100.00
19789;BME280;10054;59.332;18.244;2023-11-18T06:31:24;101797.41;;;-0.47;100.00
19789;BME280;10054;59.332;18.244;2023-11-18T06:33:53;101795.26;;;-0.46;100.00
19789;BME280;10054;59.332;18.244;2023-11-18T06:36:22;101797.84;;;-0.46;100.00
19789;BME280;10054;59.332;18.244;2023-11-18T06:38:53;101798.28;;;-0.45;100.00
19789;BME280;10054;59.332;18.244;2023-11-18T06:41:23;101791.80;;;-0.45;100.00
19789;BME280;10054;59.332;18.244;2023-11-18T06:43:53;101796.13;;;-0.46;100.00
19789;BME280;10054;59.332;18.244;2023-11-18T06:46:28;101794.83;;;-0.44;100.00
19789;BME280;10054;59.332;18.244;2023-11-18T06:48:59;101796.55;;;-0.45;100.00
19789;BME280;10054;59.332;18.244;2023-11-18T06:51:31;101790.50;;;-0.45;100.00
19789;BME280;10054;59.332;18.244;2023-11-18T06:54:03;101787.91;;;-0.45;100.00
19789;BME280;10054;59.332;18.244;2023-11-18T06:56:34;101792.23;;;-0.44;100.00
19789;BME280;10054;59.332;18.244;2023-11-18T06:59:08;101799.58;;;-0.45;100.00
19789;BME280;10054;59.332;18.244;2023-11-18T07:01:39;101787.48;;;-0.46;100.00
19789;BME280;10054;59.332;18.244;2023-11-18T07:04:11;101796.55;;;-0.46;100.00
19789;BME280;10054;59.332;18.244;2023-11-18T07:06:41;101795.69;;;-0.45;100.00
19789;BME280;10054;59.332;18.244;2023-11-18T07:09:10;101800.88;;;-0.44;100.00
19789;BME280;10054;59.332;18.244;2023-11-18T07:11:44;101801.73;;;-0.43;100.00
19789;BME280;10054;59.332;18.244;2023-11-18T07:14:14;101801.31;;;-0.44;100.00
19789;BME280;10054;59.332;18.244;2023-11-18T07:16:44;101798.72;;;-0.44;100.00
19789;BME280;10054;59.332;18.244;2023-11-18T07:19:13;101800.02;;;-0.44;100.00
19789;BME280;10054;59.332;18.244;2023-11-18T07:21:48;101801.30;;;-0.46;100.00
19789;BME280;10054;59.332;18.244;2023-11-18T07:24:17;101808.65;;;-0.45;100.00
19789;BME280;10054;59.332;18.244;2023-11-18T07:26:48;101807.35;;;-0.47;100.00
19789;BME280;10054;59.332;18.244;2023-11-18T07:29:18;101812.54;;;-0.45;100.00
19789;BME280;10054;59.332;18.244;2023-11-18T07:31:47;101805.63;;;-0.43;100.00
19789;BME280;10054;59.332;18.244;2023-11-18T07:34:16;101807.79;;;-0.43;100.00
19789;BME280;10054;59.332;18.244;2023-11-18T07:36:45;101800.88;;;-0.44;100.00
19789;BME280;10054;59.332;18.244;2023-11-18T07:39:15;101804.77;;;-0.42;100.00
19789;BME280;10054;59.332;18.244;2023-11-18T07:41:45;101801.73;;;-0.43;100.00
19789;BME280;10054;59.332;18.244;2023-11-18T07:44:14;101807.36;;;-0.44;100.00
19789;BME280;10054;59.332;18.244;2023-11-18T07:46:43;101808.22;;;-0.48;100.00
19789;BME280;10054;59.332;18.244;2023-11-18T07:49:12;101810.79;;;-0.55;100.00
19789;BME280;10054;59.332;18.244;2023-11-18T07:51:41;101810.34;;;-0.59;100.00
19789;BME280;10054;59.332;18.244;2023-11-18T07:54:10;101811.64;;;-0.62;100.00
19789;BME280;10054;59.332;18.244;2023-11-18T07:56:40;101809.04;;;-0.64;100.00
19789;BME280;10054;59.332;18.244;2023-11-18T07:59:09;101808.59;;;-0.68;100.00
19789;BME280;10054;59.332;18.244;2023-11-18T08:01:41;101809.03;;;-0.67;100.00
19789;BME280;10054;59.332;18.244;2023-11-18T08:04:12;101807.73;;;-0.67;100.00
19789;BME280;10054;59.332;18.244;2023-11-18T08:06:41;101807.73;;;-0.67;100.00
19789;BME280;10054;59.332;18.244;2023-11-18T08:09:11;101806.44;;;-0.69;100.00
19789;BME280;10054;59.332;18.244;2023-11-18T08:11:42;101808.17;;;-0.68;100.00
19789;BME280;10054;59.332;18.244;2023-11-18T08:14:11;101809.03;;;-0.69;100.00
19789;BME280;10054;59.332;18.244;2023-11-18T08:16:40;101808.16;;;-0.69;100.00
19789;BME280;10054;59.332;18.244;2023-11-18T08:19:09;101805.13;;;-0.72;100.00
19789;BME280;10054;59.332;18.244;2023-11-18T08:21:38;101805.99;;;-0.73;100.00
19789;BME280;10054;59.332;18.244;2023-11-18T08:24:07;101797.81;;;-0.77;100.00
19789;BME280;10054;59.332;18.244;2023-11-18T08:26:36;101799.09;;;-0.80;100.00
19789;BME280;10054;59.332;18.244;2023-11-18T08:29:04;101800.81;;;-0.83;100.00
19789;BME280;10054;59.332;18.244;2023-11-18T08:31:35;101804.27;;;-0.83;100.00
19789;BME280;10054;59.332;18.244;2023-11-18T08:34:04;101802.98;;;-0.81;100.00
19789;BME280;10054;59.332;18.244;2023-11-18T08:36:33;101800.39;;;-0.80;100.00
19789;BME280;10054;59.332;18.244;2023-11-18T08:39:01;101801.25;;;-0.72;100.00
19789;BME280;10054;59.332;18.244;2023-11-18T08:41:31;101807.33;;;-0.57;100.00
19789;BME280;10054;59.332;18.244;2023-11-18T08:44:00;101806.87;;;-0.68;100.00
19789;BME280;10054;59.332;18.244;2023-11-18T08:46:29;101807.31;;;-0.77;100.00
19789;BME280;10054;59.332;18.244;2023-11-18T08:48:59;101810.74;;;-0.84;100.00
19789;BME280;10054;59.332;18.244;2023-11-18T08:51:29;101815.91;;;-0.89;100.00
19789;BME280;10054;59.332;18.244;2023-11-18T08:54:00;101818.91;;;-0.92;100.00
19789;BME280;10054;59.332;18.244;2023-11-18T08:56:29;101818.91;;;-0.92;100.00
19789;BME280;10054;59.332;18.244;2023-11-18T08:58:59;101815.03;;;-0.92;100.00
19789;BME280;10054;59.332;18.244;2023-11-18T09:01:28;101810.72;;;-0.92;100.00
19789;BME280;10054;59.332;18.244;2023-11-18T09:03:59;101809.84;;;-0.95;100.00
19789;BME280;10054;59.332;18.244;2023-11-18T09:06:29;101816.31;;;-0.94;100.00
19789;BME280;10054;59.332;18.244;2023-11-18T09:08:59;101815.02;;;-0.97;100.00
19789;BME280;10054;59.332;18.244;2023-11-18T09:11:29;101814.16;;;-0.96;100.00
19789;BME280;10054;59.332;18.244;2023-11-18T09:13:59;101817.16;;;-0.98;100.00
19789;BME280;10054;59.332;18.244;2023-11-18T09:16:30;101820.19;;;-0.98;100.00
19789;BME280;10054;59.332;18.244;2023-11-18T09:19:00;101821.48;;;-0.98;100.00
19789;BME280;10054;59.332;18.244;2023-11-18T09:21:30;101820.61;;;-0.99;100.00
19789;BME280;10054;59.332;18.244;2023-11-18T09:24:01;101824.07;;;-0.98;100.00
19789;BME280;10054;59.332;18.244;2023-11-18T09:26:34;101823.17;;;-1.05;100.00
19789;BME280;10054;59.332;18.244;2023-11-18T09:29:03;101821.44;;;-1.08;100.00
19789;BME280;10054;59.332;18.244;2023-11-18T09:31:33;101824.02;;;-1.11;100.00
19789;BME280;10054;59.332;18.244;2023-11-18T09:34:02;101818.40;;;-1.12;100.00
19789;BME280;10054;59.332;18.244;2023-11-18T09:36:33;101817.96;;;-1.13;100.00
19789;BME280;10054;59.332;18.244;2023-11-18T09:39:03;101815.81;;;-1.12;100.00
19789;BME280;10054;59.332;18.244;2023-11-18T09:41:32;101824.03;;;-1.06;100.00
19789;BME280;10054;59.332;18.244;2023-11-18T09:44:05;101821.95;;;-0.90;100.00
19789;BME280;10054;59.332;18.244;2023-11-18T09:46:36;101816.34;;;-0.86;100.00
19789;BME280;10054;59.332;18.244;2023-11-18T09:51:45;101819.78;;;-0.92;100.00
19789;BME280;10054;59.332;18.244;2023-11-18T09:54:30;101816.73;;;-0.97;100.00
19789;BME280;10054;59.332;18.244;2023-11-18T09:57:23;101819.77;;;-0.95;100.00
19789;BME280;10054;59.332;18.244;2023-11-18T10:00:06;101819.34;;;-0.94;100.00
19789;BME280;10054;59.332;18.244;2023-11-18T10:02:40;101816.75;;;-0.94;100.00
19789;BME280;10054;59.332;18.244;2023-11-18T10:05:11;101821.91;;;-0.97;100.00
19789;BME280;10054;59.332;18.244;2023-11-18T10:07:44;101814.58;;;-0.96;100.00
19789;BME280;10054;59.332;18.244;2023-11-18T10:10:15;101814.58;;;-0.98;100.00
19789;BME280;10054;59.332;18.244;2023-11-18T10:12:44;101824.56;;;-0.82;100.00
19789;BME280;10054;59.332;18.244;2023-11-18T10:15:18;101827.59;;;-0.83;100.00
19789;BME280;10054;59.332;18.244;2023-11-18T10:17:48;101827.56;;;-0.87;100.00
19789;BME280;10054;59.332;18.244;2023-11-18T10:23:15;101821.05;;;-0.98;100.00
19789;BME280;10054;59.332;18.244;2023-11-18T10:25:47;101821.45;;;-1.03;100.00
19789;BME280;10054;59.332;18.244;2023-11-18T10:28:30;101822.33;;;-1.01;100.00
19789;BME280;10054;59.332;18.244;2023-11-18T10:31:07;101825.77;;;-1.04;100.00
19789;BME280;10054;59.332;18.244;2023-11-18T10:33:39;101825.77;;;-1.04;100.00
19789;BME280;10054;59.332;18.244;2023-11-18T10:36:23;101826.20;;;-1.06;100.00
19789;BME280;10054;59.332;18.244;2023-11-18T10:38:53;101830.91;;;-1.11;100.00
19789;BME280;10054;59.332;18.244;2023-11-18T10:41:26;101831.80;;;-1.08;100.00
19789;BME280;10054;59.332;18.244;2023-11-18T10:44:07;101827.48;;;-1.07;100.00
19789;BME280;10054;59.332;18.244;2023-11-18T10:46:37;101827.95;;;-1.00;100.00
19789;BME280;10054;59.332;18.244;2023-11-18T10:49:06;101825.41;;;-0.88;100.00
19789;BME280;10054;59.332;18.244;2023-11-18T10:51:39;101824.09;;;-0.91;100.00
19789;BME280;10054;59.332;18.244;2023-11-18T10:54:09;101821.08;;;-0.92;100.00
19789;BME280;10054;59.332;18.244;2023-11-18T10:56:52;101824.50;;;-0.97;100.00
19789;BME280;10054;59.332;18.244;2023-11-18T10:59:17;101823.19;;;-1.04;100.00
19789;BME280;10054;59.332;18.244;2023-11-18T11:01:46;101822.73;;;-1.06;100.00
19789;BME280;10054;59.332;18.244;2023-11-18T11:04:16;101824.45;;;-1.08;100.00
19789;BME280;10054;59.332;18.244;2023-11-18T11:06:48;101820.97;;;-1.15;100.00
19789;BME280;10054;59.332;18.244;2023-11-18T11:09:24;101827.87;;;-1.17;100.00
19789;BME280;10054;59.332;18.244;2023-11-18T11:11:58;101826.55;;;-1.21;100.00
19789;BME280;10054;59.332;18.244;2023-11-18T11:14:33;101825.25;;;-1.21;100.00
19789;BME280;10054;59.332;18.244;2023-11-18T11:17:05;101829.98;;;-1.24;100.00
19789;BME280;10054;59.332;18.244;2023-11-18T11:20:19;101823.52;;;-1.24;100.00
19789;BME280;10054;59.332;18.244;2023-11-18T11:22:11;101825.25;;;-1.23;100.00
19789;BME280;10054;59.332;18.244;2023-11-18T11:27:27;101823.07;;;-1.26;100.00
19789;BME280;10054;59.332;18.244;2023-11-18T11:32:48;101826.02;;;-1.41;100.00
19789;BME280;10054;59.332;18.244;2023-11-18T11:35:22;101821.71;;;-1.39;100.00
19789;BME280;10054;59.332;18.244;2023-11-18T11:37:53;101819.20;;;-1.25;100.00
19789;BME280;10054;59.332;18.244;2023-11-18T11:40:23;101820.11;;;-1.15;100.00
19789;BME280;10054;59.332;18.244;2023-11-18T11:42:54;101821.42;;;-1.12;100.00
19789;BME280;10054;59.332;18.244;2023-11-18T11:45:28;101827.46;;;-1.12;100.00
19789;BME280;10054;59.332;18.244;2023-11-18T11:47:59;101826.17;;;-1.10;100.00
19789;BME280;10054;59.332;18.244;2023-11-18T11:50:32;101821.00;;;-1.09;100.00
19789;BME280;10054;59.332;18.244;2023-11-18T11:53:10;101826.19;;;-1.09;100.00
19789;BME280;10054;59.332;18.244;2023-11-18T11:58:24;101829.59;;;-1.16;100.00
19789;BME280;10054;59.332;18.244;2023-11-18T12:00:39;101835.62;;;-1.18;100.00
19789;BME280;10054;59.332;18.244;2023-11-18T12:03:11;101836.45;;;-1.25;100.00
19789;BME280;10054;59.332;18.244;2023-11-18T12:05:42;101838.19;;;-1.24;100.00
19789;BME280;10054;59.332;18.244;2023-11-18T12:08:11;101840.79;;;-1.21;100.00
19789;BME280;10054;59.332;18.244;2023-11-18T12:10:41;101840.78;;;-1.23;100.00
19789;BME280;10054;59.332;18.244;2023-11-18T12:13:12;101838.20;;;-1.21;100.00
19789;BME280;10054;59.332;18.244;2023-11-18T12:15:54;101834.78;;;-1.14;100.00
19789;BME280;10054;59.332;18.244;2023-11-18T12:18:27;101830.92;;;-1.10;100.00
19789;BME280;10054;59.332;18.244;2023-11-18T12:20:57;101826.16;;;-1.13;100.00
19789;BME280;10054;59.332;18.244;2023-11-18T12:23:28;101831.36;;;-1.09;100.00
19789;BME280;10054;59.332;18.244;2023-11-18T12:25:58;101829.64;;;-1.08;100.00
19789;BME280;10054;59.332;18.244;2023-11-18T12:28:28;101827.92;;;-1.06;100.00
19789;BME280;10054;59.332;18.244;2023-11-18T12:30:58;101822.31;;;-1.04;100.00
19789;BME280;10054;59.332;18.244;2023-11-18T12:41:55;101819.75;;;-1.00;100.00
19789;BME280;10054;59.332;18.244;2023-11-18T12:47:25;101817.61;;;-0.95;100.00
19789;BME280;10054;59.332;18.244;2023-11-18T12:49:55;101819.38;;;-0.85;100.00
19789;BME280;10054;59.332;18.244;2023-11-18T12:52:24;101819.80;;;-0.86;100.00
19789;BME280;10054;59.332;18.244;2023-11-18T12:54:56;101823.66;;;-0.92;100.00
19789;BME280;10054;59.332;18.244;2023-11-18T12:57:30;101818.89;;;-0.98;100.00
19789;BME280;10054;59.332;18.244;2023-11-18T13:00:03;101818.88;;;-1.03;100.00
19789;BME280;10054;59.332;18.244;2023-11-18T13:02:32;101816.70;;;-1.05;100.00
19789;BME280;10054;59.332;18.244;2023-11-18T13:05:05;101812.83;;;-1.04;100.00
19789;BME280;10054;59.332;18.244;2023-11-18T13:07:36;101813.25;;;-1.04;100.00
19789;BME280;10054;59.332;18.244;2023-11-18T13:10:07;101808.93;;;-1.07;100.00
19789;BME280;10054;59.332;18.244;2023-11-18T13:12:36;101811.93;;;-1.10;100.00
19789;BME280;10054;59.332;18.244;2023-11-18T13:15:05;101810.64;;;-1.10;100.00